Time;durP1;ratioP1;P1;durP2;ratioP2;P2;SDS_P1;SDS_P2;PMS_P1;PMS_P2;Temp;Humidity;BMP_temperature;BMP_pressure;BME280_temperature;BME280_humidity;BME280_pressure;Samples;Min_cycle;Max_cycle;Signal;HPM_P1;HPM_P2
2023/03/20 00:00:32;;;;;;;0.73;0.70;;;;;;;23.73;35.30;99629.41;1845400;76;28192;-60
2023/03/20 00:03:23;;;;;;;0.60;0.60;;;;;;;23.73;35.39;99621.17;1858279;76;28060;-60
2023/03/20 00:06:18;;;;;;;0.53;0.53;;;;;;;23.73;35.36;99625.29;1857885;76;28273;-61
2023/03/20 00:09:07;;;;;;;0.80;0.80;;;;;;;23.74;35.39;99625.56;1841133;77;28254;-63
2023/03/20 00:11:56;;;;;;;0.80;0.80;;;;;;;23.74;35.39;99625.56;1865391;76;28368;-59
2023/03/20 00:14:45;;;;;;;0.68;0.68;;;;;;;23.76;35.37;99627.00;1834668;77;28221;-58
2023/03/20 00:17:33;;;;;;;0.70;0.70;;;;;;;23.77;35.29;99627.31;1850969;76;28161;-58
2023/03/20 00:20:22;;;;;;;0.70;0.70;;;;;;;23.73;35.39;99630.78;1848334;75;28077;-57
2023/03/20 00:23:11;;;;;;;0.60;0.60;;;;;;;23.76;35.39;99631.65;1864772;76;28040;-58
2023/03/20 00:25:59;;;;;;;0.60;0.60;;;;;;;23.77;35.35;99628.69;1802456;79;28286;-58
2023/03/20 00:28:49;;;;;;;0.60;0.60;;;;;;;23.75;35.40;99628.63;1845720;76;28134;-58
2023/03/20 00:31:39;;;;;;;0.60;0.60;;;;;;;23.75;35.46;99627.25;1865821;76;28064;-58
2023/03/20 00:34:30;;;;;;;0.75;0.75;;;;;;;23.75;35.42;99622.61;1862660;76;28043;-58
2023/03/20 00:37:19;;;;;;;1.80;0.50;;;;;;;23.75;35.43;99617.66;1867409;75;28051;-59
2023/03/20 00:40:08;;;;;;;0.70;0.70;;;;;;;23.74;35.48;99613.23;1846568;76;28220;-59
2023/03/20 00:43:03;;;;;;;0.70;0.70;;;;;;;23.79;35.40;99613.34;1859987;75;28217;-58
2023/03/20 00:45:52;;;;;;;0.60;0.60;;;;;;;23.75;35.47;99609.42;1860916;76;28108;-58
2023/03/20 00:48:42;;;;;;;0.70;0.50;;;;;;;23.76;35.44;99609.70;1851363;76;28122;-60
2023/03/20 00:51:30;;;;;;;0.60;0.60;;;;;;;23.79;35.47;99611.98;1858107;76;28126;-59
2023/03/20 00:54:19;;;;;;;0.40;0.40;;;;;;;23.81;35.38;99608.45;1852849;76;28116;-58
2023/03/20 00:57:25;;;;;;;0.70;0.70;;;;;;;23.80;35.42;99613.13;1820955;77;28190;-59
2023/03/20 01:00:35;;;;;;;0.80;0.40;;;;;;;23.80;35.42;99609.55;1864871;76;33007;-59
2023/03/20 01:03:28;;;;;;;0.50;0.50;;;;;;;23.80;35.45;99606.80;1864183;76;28093;-58
2023/03/20 01:06:17;;;;;;;1.02;0.40;;;;;;;23.78;35.46;99602.09;1854677;75;28136;-58
2023/03/20 01:09:06;;;;;;;0.60;0.60;;;;;;;23.77;35.48;99598.52;1855759;76;28180;-58
2023/03/20 01:11:54;;;;;;;0.50;0.50;;;;;;;23.80;35.47;99592.56;1862505;76;28612;-60
2023/03/20 01:14:43;;;;;;;0.57;0.57;;;;;;;23.80;35.46;99589.81;1852045;76;28192;-59
2023/03/20 01:17:32;;;;;;;1.70;0.60;;;;;;;23.80;35.45;99591.19;1858560;76;28574;-57
2023/03/20 01:20:23;;;;;;;0.53;0.53;;;;;;;23.81;35.46;99585.14;1868896;76;28153;-60
2023/03/20 01:23:12;;;;;;;0.68;0.68;;;;;;;23.84;35.49;99582.77;1840749;76;28610;-57
2023/03/20 01:26:00;;;;;;;0.57;0.57;;;;;;;23.81;35.46;99578.28;1865341;76;28089;-59
2023/03/20 01:28:50;;;;;;;0.40;0.40;;;;;;;23.84;35.46;99572.32;1863322;76;28095;-59
2023/03/20 01:31:40;;;;;;;0.47;0.47;;;;;;;23.86;35.44;99568.80;1861043;76;28181;-59
2023/03/20 01:34:29;;;;;;;1.10;0.80;;;;;;;23.86;35.41;99564.68;1853464;75;28181;-58
2023/03/20 01:37:20;;;;;;;0.53;0.53;;;;;;;23.86;35.44;99563.31;1871270;75;28065;-58
2023/03/20 01:40:23;;;;;;;1.00;0.55;;;;;;;23.87;35.41;99558.13;1829507;77;28238;-58
2023/03/20 01:43:15;;;;;;;0.55;0.55;;;;;;;23.88;35.41;99554.30;1846614;76;28263;-58
2023/03/20 01:46:30;;;;;;;0.50;0.47;;;;;;;23.85;35.42;99552.86;1868519;76;28054;-59
2023/03/20 01:49:23;;;;;;;0.45;0.45;;;;;;;23.83;35.53;99541.83;1868988;75;28064;-59
2023/03/20 01:52:12;;;;;;;0.40;0.40;;;;;;;23.82;35.58;99541.03;1859263;76;28145;-59
2023/03/20 01:55:02;;;;;;;0.45;0.45;;;;;;;23.86;35.51;99541.36;1850877;75;28204;-58
2023/03/20 01:57:54;;;;;;;0.40;0.40;;;;;;;23.87;35.49;99537.02;1867939;76;28044;-57
2023/03/20 02:00:43;;;;;;;1.27;0.62;;;;;;;23.91;35.48;99537.36;1859255;76;28128;-58
2023/03/20 02:03:33;;;;;;;0.40;0.40;;;;;;;23.90;35.49;99535.67;1864851;76;28112;-59
2023/03/20 02:06:29;;;;;;;2.60;0.60;;;;;;;23.93;35.44;99532.46;1861276;76;28154;-58
2023/03/20 02:09:22;;;;;;;1.03;0.60;;;;;;;23.94;35.49;99530.02;1858953;76;28069;-58
2023/03/20 02:12:11;;;;;;;0.33;0.33;;;;;;;23.97;35.44;99529.52;1850538;76;28175;-57
2023/03/20 02:15:01;;;;;;;0.42;0.42;;;;;;;24.00;35.39;99530.41;1853279;75;28206;-58
2023/03/20 02:18:07;;;;;;;0.33;0.33;;;;;;;23.99;35.42;99527.39;1850726;76;28047;-59
2023/03/20 02:21:04;;;;;;;0.37;0.37;;;;;;;24.02;35.38;99521.39;1854954;76;28266;-59
2023/03/20 02:24:18;;;;;;;0.50;0.50;;;;;;;24.02;35.39;99521.39;1887161;75;28046;-58
2023/03/20 02:27:18;;;;;;;0.43;0.43;;;;;;;24.00;35.43;99521.66;1877899;76;28057;-59
2023/03/20 02:30:27;;;;;;;1.80;0.30;;;;;;;23.98;35.45;99521.06;1866017;76;28138;-58
2023/03/20 02:33:44;;;;;;;0.35;0.35;;;;;;;24.04;35.45;99519.23;1866854;76;28119;-59
2023/03/20 02:36:35;;;;;;;0.37;0.37;;;;;;;23.98;35.47;99516.11;1872091;75;28162;-58
2023/03/20 02:39:50;;;;;;;0.23;0.23;;;;;;;24.02;35.51;99518.12;1846394;76;28145;-59
2023/03/20 02:43:17;;;;;;;0.42;0.42;;;;;;;24.01;35.47;99512.89;1866497;76;28137;-57
2023/03/20 02:46:19;;;;;;;0.50;0.50;;;;;;;24.04;35.50;99518.70;1860308;76;38443;-60
2023/03/20 02:49:20;;;;;;;0.35;0.35;;;;;;;24.02;35.54;99524.98;1846903;76;28079;-60
2023/03/20 02:52:20;;;;;;;0.40;0.40;;;;;;;24.03;35.58;99517.59;1854782;76;28105;-59
2023/03/20 02:55:36;;;;;;;0.40;0.40;;;;;;;24.10;35.51;99521.06;1880697;75;28007;-58
2023/03/20 02:58:28;;;;;;;0.30;0.30;;;;;;;24.08;35.53;99527.87;1878269;75;28052;-57
2023/03/20 03:01:29;;;;;;;0.40;0.40;;;;;;;24.12;35.50;99525.77;1876512;76;28596;-57
2023/03/20 03:04:21;;;;;;;0.40;0.40;;;;;;;24.12;35.46;99527.13;1846849;76;28133;-60
2023/03/20 03:07:12;;;;;;;0.37;0.37;;;;;;;24.12;35.55;99524.92;1878000;76;28102;-59
2023/03/20 03:10:04;;;;;;;0.30;0.30;;;;;;;24.17;35.50;99524.50;1857669;75;28149;-58
2023/03/20 03:12:56;;;;;;;0.50;0.40;;;;;;;24.13;35.51;99524.70;1862995;76;28363;-58
2023/03/20 03:15:48;;;;;;;0.40;0.40;;;;;;;24.15;35.51;99522.54;1859282;76;28125;-60
2023/03/20 03:18:38;;;;;;;0.40;0.40;;;;;;;24.21;35.47;99520.17;1860675;76;28184;-59
2023/03/20 03:21:29;;;;;;;0.65;0.35;;;;;;;24.24;35.43;99518.33;1838808;76;28131;-57
2023/03/20 03:24:32;;;;;;;0.37;0.37;;;;;;;24.27;35.42;99517.00;1845567;77;28161;-57
2023/03/20 03:27:35;;;;;;;0.30;0.30;;;;;;;24.32;35.39;99515.73;1844459;76;28215;-55
2023/03/20 03:30:33;;;;;;;0.20;0.20;;;;;;;24.31;35.38;99514.89;1849331;76;28185;-56
2023/03/20 03:33:30;;;;;;;0.30;0.30;;;;;;;24.28;35.48;99517.28;1840815;76;28174;-55
2023/03/20 03:36:53;;;;;;;0.30;0.30;;;;;;;24.30;35.51;99514.59;1838383;76;28162;-55
2023/03/20 03:39:48;;;;;;;0.40;0.40;;;;;;;24.30;35.51;99514.59;1842529;76;28141;-56
2023/03/20 03:42:39;;;;;;;0.30;0.30;;;;;;;24.32;35.47;99516.55;1857967;76;28251;-57
2023/03/20 03:45:36;;;;;;;1.10;0.40;;;;;;;24.34;35.45;99521.81;1847581;77;28230;-57
2023/03/20 03:48:27;;;;;;;0.30;0.30;;;;;;;24.33;35.51;99521.50;1829073;77;28182;-55
2023/03/20 03:51:19;;;;;;;0.90;0.50;;;;;;;24.31;35.50;99522.29;1867640;76;28089;-55
2023/03/20 03:54:20;;;;;;;0.42;0.42;;;;;;;24.33;35.50;99523.72;1867247;76;28143;-58
2023/03/20 03:57:12;;;;;;;0.55;0.50;;;;;;;24.38;35.46;99520.23;1838973;77;28148;-56
2023/03/20 04:00:05;;;;;;;0.40;0.40;;;;;;;24.40;35.43;99525.77;1847977;77;28369;-57
2023/03/20 04:02:57;;;;;;;0.23;0.23;;;;;;;24.39;35.38;99528.21;1848114;77;28108;-56
2023/03/20 04:05:47;;;;;;;0.40;0.40;;;;;;;24.44;35.39;99525.56;1854749;76;28077;-55
2023/03/20 04:08:35;;;;;;;0.70;0.40;;;;;;;24.44;35.37;99530.22;1868384;76;28103;-57
2023/03/20 04:11:27;;;;;;;0.30;0.30;;;;;;;24.48;35.32;99530.85;1864595;76;28245;-58
2023/03/20 04:14:15;;;;;;;0.30;0.30;;;;;;;24.46;35.34;99530.27;1858622;76;28557;-56
2023/03/20 04:17:05;;;;;;;1.00;0.40;;;;;;;24.52;35.21;99529.30;1841490;76;28623;-55
2023/03/20 04:19:53;;;;;;;0.30;0.30;;;;;;;24.52;35.23;99525.72;1866726;76;28051;-55
2023/03/20 04:22:42;;;;;;;0.30;0.30;;;;;;;24.52;35.18;99529.30;1856409;76;28108;-56
2023/03/20 04:25:31;;;;;;;0.40;0.40;;;;;;;24.53;35.18;99527.36;1853582;77;28146;-56
2023/03/20 04:28:20;;;;;;;0.35;0.35;;;;;;;24.52;35.22;99537.54;1863417;76;29370;-56
2023/03/20 04:31:13;;;;;;;0.30;0.30;;;;;;;24.58;35.10;99539.82;1866276;76;28164;-56
2023/03/20 04:34:15;;;;;;;0.23;0.23;;;;;;;24.52;35.18;99553.17;1833052;77;28231;-57
2023/03/20 04:37:20;;;;;;;0.00;0.00;;;;;;;24.53;35.18;99559.78;1849167;77;28148;-55
2023/03/20 04:40:14;;;;;;;0.47;0.40;;;;;;;24.51;35.19;99554.24;1842539;77;28056;-58
2023/03/20 04:43:03;;;;;;;0.25;0.25;;;;;;;24.46;35.26;99535.77;1828994;77;28266;-57
2023/03/20 04:45:52;;;;;;;0.30;0.30;;;;;;;24.53;35.20;99544.69;1832556;76;28120;-55
2023/03/20 04:48:42;;;;;;;0.20;0.20;;;;;;;24.56;35.16;99544.73;1849998;76;28349;-55
2023/03/20 04:51:31;;;;;;;0.17;0.17;;;;;;;24.56;35.16;99541.45;1841716;77;28191;-57
2023/03/20 04:54:20;;;;;;;0.20;0.20;;;;;;;24.56;35.13;99544.73;1840141;77;28130;-56
2023/03/20 04:57:08;;;;;;;0.40;0.40;;;;;;;24.57;35.08;99545.88;1838650;77;28064;-56
2023/03/20 04:59:58;;;;;;;0.30;0.30;;;;;;;24.59;35.06;99536.84;1854537;77;30142;-56
2023/03/20 05:02:46;;;;;;;0.20;0.20;;;;;;;24.61;35.01;99538.80;1848579;75;28122;-53
2023/03/20 05:05:36;;;;;;;0.42;0.42;;;;;;;24.61;35.01;99543.45;1841878;77;28120;-57
2023/03/20 05:08:26;;;;;;;0.40;0.40;;;;;;;24.59;35.00;99531.36;1854591;77;28351;-55
2023/03/20 05:11:15;;;;;;;0.30;0.30;;;;;;;24.56;35.06;99521.39;1868140;76;28197;-56
2023/03/20 05:14:14;;;;;;;0.30;0.30;;;;;;;24.58;35.03;99531.05;1842054;76;28181;-59
2023/03/20 05:17:07;;;;;;;0.40;0.30;;;;;;;24.59;35.04;99531.36;1841706;77;28122;-56
2023/03/20 05:20:15;;;;;;;0.30;0.30;;;;;;;24.60;34.99;99527.52;1840348;77;28178;-56
2023/03/20 05:23:05;;;;;;;0.30;0.30;;;;;;;24.59;35.03;99528.61;1837972;76;28138;-56
2023/03/20 05:26:10;;;;;;;0.42;0.42;;;;;;;24.60;35.04;99534.38;1804814;76;28279;-58
2023/03/20 05:28:59;;;;;;;0.40;0.40;;;;;;;24.56;35.09;99534.59;1846979;77;28124;-57
2023/03/20 05:32:06;;;;;;;0.20;0.20;;;;;;;24.59;35.08;99531.89;1858864;76;28188;-53
2023/03/20 05:34:59;;;;;;;0.20;0.20;;;;;;;24.60;35.10;99536.28;1855049;76;28210;-57
2023/03/20 05:37:54;;;;;;;0.30;0.30;;;;;;;24.60;35.04;99542.62;1843798;77;28108;-57
2023/03/20 05:40:44;;;;;;;0.23;0.23;;;;;;;24.60;35.08;99541.24;1856794;77;28091;-55
2023/03/20 05:43:43;;;;;;;0.20;0.20;;;;;;;24.57;35.12;99543.13;1831402;77;28064;-57
2023/03/20 05:46:50;;;;;;;0.23;0.23;;;;;;;24.53;35.17;99550.17;1868337;75;28072;-56
2023/03/20 05:49:43;;;;;;;0.30;0.30;;;;;;;24.58;35.13;99548.06;1865861;76;28080;-58
2023/03/20 05:52:42;;;;;;;0.20;0.20;;;;;;;24.61;35.09;99548.42;1823747;76;28341;-54
2023/03/20 05:55:44;;;;;;;0.30;0.30;;;;;;;24.54;35.18;99543.61;1868734;76;28071;-57
2023/03/20 05:58:51;;;;;;;0.30;0.30;;;;;;;24.60;35.17;99541.78;1848755;76;28142;-55
2023/03/20 06:01:50;;;;;;;0.35;0.35;;;;;;;24.58;35.17;99548.06;1861170;76;28197;-56
2023/03/20 06:04:46;;;;;;;0.20;0.20;;;;;;;24.59;35.13;99551.95;1862146;76;28052;-55
2023/03/20 06:07:37;;;;;;;0.35;0.35;;;;;;;24.60;35.13;99556.35;1850060;76;28268;-56
2023/03/20 06:10:29;;;;;;;0.20;0.20;;;;;;;24.63;35.10;99557.77;1837451;77;28238;-56
2023/03/20 06:13:17;;;;;;;0.25;0.25;;;;;;;24.62;35.06;99556.94;1867334;76;28102;-55
2023/03/20 06:16:08;;;;;;;0.30;0.30;;;;;;;24.65;35.07;99560.57;1853810;77;28167;-55
2023/03/20 06:18:57;;;;;;;0.33;0.23;;;;;;;24.69;34.98;99563.11;1857830;76;28052;-54
2023/03/20 06:21:45;;;;;;;0.25;0.25;;;;;;;24.67;34.98;99566.65;1844078;76;28153;-57
2023/03/20 06:24:37;;;;;;;0.30;0.30;;;;;;;24.70;34.99;99568.07;1845081;76;28216;-56
2023/03/20 06:27:26;;;;;;;0.20;0.20;;;;;;;24.68;34.99;99568.33;1835768;77;31981;-56
2023/03/20 06:30:16;;;;;;;0.20;0.20;;;;;;;24.69;35.03;99565.86;1868763;76;28122;-56
2023/03/20 06:33:06;;;;;;;0.28;0.28;;;;;;;24.66;35.03;99569.65;1857364;76;28049;-55
2023/03/20 06:35:56;;;;;;;0.20;0.20;;;;;;;24.70;34.98;99573.03;1868509;75;28127;-55
2023/03/20 06:38:46;;;;;;;0.30;0.30;;;;;;;24.69;34.98;99571.35;1839760;76;28169;-54
2023/03/20 06:41:36;;;;;;;0.15;0.15;;;;;;;24.71;35.00;99572.50;1848410;76;28188;-58
2023/03/20 06:44:27;;;;;;;0.30;0.30;;;;;;;24.72;34.93;99573.61;1839077;77;28053;-58
2023/03/20 06:47:19;;;;;;;0.30;0.30;;;;;;;24.69;34.91;99567.23;1836133;77;28054;-61
2023/03/20 06:50:10;;;;;;;0.20;0.20;;;;;;;24.69;34.91;99567.23;1856184;77;28089;-59
2023/03/20 06:53:00;;;;;;;0.30;0.30;;;;;;;24.71;34.08;99570.56;1863726;76;28056;-58
2023/03/20 06:55:56;;;;;;;0.20;0.20;;;;;;;24.72;33.61;99569.49;1837625;77;28072;-56
2023/03/20 06:58:45;;;;;;;0.10;0.10;;;;;;;24.67;33.52;99570.77;1836278;77;28139;-58
2023/03/20 07:01:34;;;;;;;0.27;0.27;;;;;;;24.63;33.64;99568.23;1856207;77;28244;-60
2023/03/20 07:04:24;;;;;;;0.40;0.40;;;;;;;24.66;33.60;99569.65;1868557;76;28127;-55
2023/03/20 07:07:14;;;;;;;0.20;0.20;;;;;;;24.62;33.68;99572.04;1828573;75;28303;-58
2023/03/20 07:10:05;;;;;;;0.30;0.30;;;;;;;24.65;33.82;99581.70;1854681;75;28123;-58
2023/03/20 07:12:55;;;;;;;0.17;0.17;;;;;;;24.62;33.78;99579.47;1856154;77;28150;-61
2023/03/20 07:15:44;;;;;;;0.40;0.40;;;;;;;24.65;33.81;99584.45;1836955;77;28190;-58
2023/03/20 07:18:34;;;;;;;0.65;0.45;;;;;;;24.65;33.81;99592.16;1855758;77;28052;-57
2023/03/20 07:21:23;;;;;;;0.50;0.30;;;;;;;24.64;33.80;99596.53;1863054;76;28512;-59
2023/03/20 07:24:12;;;;;;;1.00;0.47;;;;;;;24.67;33.85;99598.23;1844990;76;28241;-58
2023/03/20 07:27:01;;;;;;;0.30;0.30;;;;;;;24.69;33.89;99599.39;1866173;76;28109;-57
2023/03/20 07:29:50;;;;;;;0.30;0.30;;;;;;;24.68;33.88;99599.92;1867706;76;28238;-57
2023/03/20 07:32:39;;;;;;;0.30;0.30;;;;;;;24.65;34.00;99605.89;1847467;77;28100;-57
2023/03/20 07:35:28;;;;;;;0.20;0.20;;;;;;;24.65;34.08;99608.64;1847162;76;28288;-57
2023/03/20 07:38:17;;;;;;;0.23;0.23;;;;;;;24.64;34.11;99605.58;1850370;77;28337;-58
2023/03/20 07:41:08;;;;;;;0.90;0.40;;;;;;;24.61;34.55;99612.97;1839043;77;28155;-58
2023/03/20 07:43:57;;;;;;;1.07;0.30;;;;;;;24.62;34.66;99611.87;1841860;77;28159;-57
2023/03/20 07:46:47;;;;;;;0.30;0.30;;;;;;;24.63;34.79;99618.20;1841527;75;28415;-58
2023/03/20 07:49:36;;;;;;;0.37;0.37;;;;;;;24.59;34.88;99615.13;1866655;74;28321;-58
2023/03/20 07:52:25;;;;;;;0.27;0.27;;;;;;;24.61;34.89;99618.45;1845380;77;28115;-58
2023/03/20 07:55:15;;;;;;;0.40;0.40;;;;;;;24.61;35.01;99617.09;1864967;76;28095;-58
2023/03/20 07:58:04;;;;;;;0.20;0.20;;;;;;;24.59;35.06;99621.99;1864934;76;28216;-59
2023/03/20 08:00:57;;;;;;;0.70;0.37;;;;;;;24.57;35.17;99624.16;1856906;76;28306;-59
2023/03/20 08:03:46;;;;;;;0.20;0.20;;;;;;;24.62;35.20;99628.34;1857015;76;28056;-58
2023/03/20 08:06:38;;;;;;;0.57;0.28;;;;;;;24.61;35.24;99622.58;1843996;77;28203;-57
2023/03/20 08:09:25;;;;;;;0.20;0.20;;;;;;;24.59;35.27;99622.52;1853176;76;28134;-58
2023/03/20 08:12:15;;;;;;;0.40;0.40;;;;;;;24.55;35.32;99623.53;1854634;76;28181;-58
2023/03/20 08:15:05;;;;;;;0.50;0.33;;;;;;;24.59;35.35;99623.37;1865812;75;28107;-59
2023/03/20 08:17:54;;;;;;;0.50;0.20;;;;;;;24.60;35.38;99623.64;1856096;77;28123;-58
2023/03/20 08:20:42;;;;;;;0.27;0.27;;;;;;;24.62;35.39;99628.91;1838137;77;28326;-59
2023/03/20 08:23:33;;;;;;;1.12;0.60;;;;;;;24.63;35.43;99629.19;1854885;75;28077;-59
2023/03/20 08:26:22;;;;;;;0.30;0.30;;;;;;;24.60;35.46;99629.14;1866620;76;28099;-58
2023/03/20 08:29:11;;;;;;;0.30;0.30;;;;;;;24.59;35.48;99629.39;1841927;76;28242;-58
2023/03/20 08:31:59;;;;;;;0.45;0.45;;;;;;;24.58;35.50;99627.70;1858129;76;28152;-57
2023/03/20 08:34:48;;;;;;;0.40;0.30;;;;;;;24.58;35.51;99635.42;1862201;76;28060;-57
2023/03/20 08:37:37;;;;;;;0.20;0.20;;;;;;;24.58;35.50;99638.16;1859606;76;28185;-55
2023/03/20 08:40:25;;;;;;;0.30;0.30;;;;;;;24.58;35.57;99638.16;1845389;76;28244;-57
2023/03/20 08:43:18;;;;;;;0.35;0.35;;;;;;;24.60;35.50;99637.91;1839896;76;28173;-58
2023/03/20 08:46:07;;;;;;;0.30;0.30;;;;;;;24.59;35.59;99639.84;1858251;76;28243;-58
2023/03/20 08:48:55;;;;;;;0.30;0.30;;;;;;;24.58;35.54;99636.80;1861352;75;28100;-58
2023/03/20 08:51:45;;;;;;;0.40;0.40;;;;;;;24.60;35.54;99644.24;1861073;75;28143;-58
2023/03/20 08:54:34;;;;;;;0.20;0.20;;;;;;;24.61;35.48;99645.92;1844951;76;28142;-58
2023/03/20 08:57:22;;;;;;;0.30;0.30;;;;;;;24.58;35.50;99645.03;1863250;76;28100;-58
2023/03/20 09:00:14;;;;;;;0.30;0.30;;;;;;;24.59;35.51;99645.88;1843848;76;28299;-58
2023/03/20 09:03:02;;;;;;;0.40;0.40;;;;;;;24.59;35.55;99645.34;1856957;76;28111;-58
2023/03/20 09:05:51;;;;;;;0.70;0.30;;;;;;;24.57;35.59;99646.12;1856572;76;28208;-58
2023/03/20 09:08:39;;;;;;;0.35;0.35;;;;;;;24.62;35.43;99657.75;1868454;76;28048;-57
2023/03/20 09:11:28;;;;;;;0.20;0.20;;;;;;;24.63;35.35;99658.03;1866680;76;30118;-57
2023/03/20 09:14:16;;;;;;;0.80;0.40;;;;;;;24.65;35.34;99656.71;1868522;76;28064;-57
2023/03/20 09:17:06;;;;;;;0.20;0.20;;;;;;;24.64;35.31;99652.84;1868458;75;28654;-57
2023/03/20 09:19:54;;;;;;;0.30;0.30;;;;;;;24.61;35.33;99652.80;1868094;76;28188;-58
2023/03/20 09:22:44;;;;;;;0.20;0.20;;;;;;;24.62;35.38;99653.06;1868492;74;28105;-58
2023/03/20 09:25:33;;;;;;;0.30;0.30;;;;;;;24.63;35.38;99660.24;1868224;76;28141;-58
2023/03/20 09:28:21;;;;;;;0.40;0.40;;;;;;;24.62;35.45;99657.19;1853703;76;28191;-59
2023/03/20 09:31:10;;;;;;;0.33;0.33;;;;;;;24.63;35.49;99652.53;1867897;76;28126;-59
2023/03/20 09:34:00;;;;;;;2.20;0.30;;;;;;;24.62;35.50;99661.88;1852655;76;28177;-56
2023/03/20 09:36:49;;;;;;;0.28;0.28;;;;;;;24.61;35.55;99669.80;1851423;76;28147;-58
2023/03/20 09:39:38;;;;;;;0.63;0.63;;;;;;;24.61;35.49;99671.17;1838821;76;28224;-57
2023/03/20 09:42:32;;;;;;;0.70;0.40;;;;;;;24.62;34.92;99672.30;1850830;76;28323;-57
2023/03/20 09:45:29;;;;;;;0.40;0.40;;;;;;;24.64;34.70;99672.07;1861916;76;28171;-57
2023/03/20 09:48:32;;;;;;;0.40;0.40;;;;;;;24.59;34.66;99681.05;1863886;76;28122;-59
2023/03/20 09:51:32;;;;;;;0.37;0.37;;;;;;;24.59;34.77;99682.42;1854458;76;28501;-56
2023/03/20 09:54:42;;;;;;;0.30;0.30;;;;;;;24.55;34.79;99681.21;1868147;75;28174;-58
2023/03/20 09:57:33;;;;;;;0.30;0.30;;;;;;;24.58;34.82;99685.39;1851268;76;28128;-55
2023/03/20 10:00:27;;;;;;;0.53;0.50;;;;;;;24.56;34.88;99682.90;1840940;76;28205;-57
2023/03/20 10:03:21;;;;;;;0.40;0.40;;;;;;;24.57;34.83;99681.83;1862194;76;28118;-58
2023/03/20 10:06:15;;;;;;;0.50;0.50;;;;;;;24.57;34.88;99681.83;1868156;76;28048;-57
2023/03/20 10:09:16;;;;;;;0.30;0.30;;;;;;;24.57;34.92;99683.20;1867175;75;28052;-56
2023/03/20 10:12:25;;;;;;;0.50;0.50;;;;;;;24.56;34.99;99682.90;1855098;76;28104;-57
2023/03/20 10:15:22;;;;;;;0.40;0.40;;;;;;;24.56;34.99;99682.90;1853570;76;28014;-57
2023/03/20 10:18:13;;;;;;;0.35;0.35;;;;;;;24.57;34.94;99687.33;1868210;76;28173;-58
2023/03/20 10:21:14;;;;;;;0.60;0.60;;;;;;;24.59;34.93;99682.95;1866440;76;28035;-57
2023/03/20 10:24:08;;;;;;;0.30;0.30;;;;;;;24.60;34.94;99684.07;1865060;74;28099;-58
2023/03/20 10:27:00;;;;;;;0.35;0.35;;;;;;;24.55;34.92;99684.52;1855261;76;30107;-58
2023/03/20 10:30:07;;;;;;;0.17;0.17;;;;;;;24.56;34.94;99684.80;1842468;76;28111;-56
2023/03/20 10:33:23;;;;;;;0.47;0.47;;;;;;;24.59;34.89;99685.70;1831084;77;28106;-57
2023/03/20 10:36:13;;;;;;;0.30;0.30;;;;;;;24.57;34.92;99690.60;1854556;77;28177;-57
2023/03/20 10:39:31;;;;;;;0.40;0.40;;;;;;;24.58;34.87;99685.39;1844550;77;28301;-57
2023/03/20 10:42:31;;;;;;;0.30;0.30;;;;;;;24.56;34.92;99677.94;1855003;77;30033;-57
2023/03/20 10:45:35;;;;;;;0.40;0.40;;;;;;;24.53;34.94;99675.13;1856671;77;28261;-54
2023/03/20 10:48:32;;;;;;;0.35;0.35;;;;;;;24.53;34.94;99677.88;1852970;77;28122;-57
2023/03/20 10:51:23;;;;;;;0.40;0.40;;;;;;;24.55;35.00;99676.28;1856727;76;28068;-59
2023/03/20 10:54:20;;;;;;;0.40;0.40;;;;;;;24.60;34.91;99681.86;1849728;76;28177;-57
2023/03/20 10:57:12;;;;;;;0.50;0.50;;;;;;;24.59;34.91;99684.33;1864309;76;38384;-57
2023/03/20 11:00:00;;;;;;;0.30;0.30;;;;;;;24.58;34.88;99677.99;1868251;76;28160;-58
2023/03/20 11:02:49;;;;;;;0.50;0.50;;;;;;;24.57;34.96;99680.45;1867598;76;28217;-60
2023/03/20 11:05:40;;;;;;;0.70;0.40;;;;;;;24.57;34.93;99687.33;1844324;77;34011;-59
2023/03/20 11:08:38;;;;;;;0.40;0.40;;;;;;;24.60;34.91;99688.19;1855120;77;28099;-60
2023/03/20 11:11:29;;;;;;;1.40;0.60;;;;;;;24.62;34.88;99692.09;1849031;76;28157;-58
2023/03/20 11:14:21;;;;;;;0.57;0.57;;;;;;;24.62;34.88;99701.14;1855568;75;28141;-59
2023/03/20 11:17:11;;;;;;;0.45;0.45;;;;;;;24.62;34.80;99687.41;1858538;75;28209;-54
2023/03/20 11:20:06;;;;;;;0.40;0.40;;;;;;;24.63;34.81;99687.72;1836652;77;28168;-55
2023/03/20 11:23:00;;;;;;;0.40;0.40;;;;;;;24.66;34.79;99684.48;1857033;77;28061;-56
2023/03/20 11:26:06;;;;;;;0.40;0.40;;;;;;;24.65;34.79;99688.83;1853296;77;28248;-56
2023/03/20 11:29:00;;;;;;;1.10;0.30;;;;;;;24.66;34.69;99683.65;1867333;74;28095;-56
2023/03/20 11:31:50;;;;;;;0.42;0.42;;;;;;;24.63;34.63;99689.09;1884341;75;28090;-55
2023/03/20 11:34:42;;;;;;;0.37;0.37;;;;;;;24.66;34.59;99685.86;1852562;77;30711;-57
2023/03/20 11:37:31;;;;;;;0.50;0.40;;;;;;;24.67;34.59;99683.92;1869885;75;28284;-56
2023/03/20 11:40:31;;;;;;;0.40;0.40;;;;;;;24.68;34.57;99688.36;1853992;75;28355;-55
2023/03/20 11:43:23;;;;;;;0.50;0.50;;;;;;;24.69;34.57;99683.17;1884386;75;28060;-56
2023/03/20 11:46:13;;;;;;;0.88;0.50;;;;;;;24.65;34.54;99683.34;1884425;75;28039;-58
2023/03/20 11:49:05;;;;;;;0.60;0.60;;;;;;;24.63;34.49;99685.50;1810413;78;28252;-54
2023/03/20 11:51:55;;;;;;;0.80;0.80;;;;;;;24.62;34.48;99684.66;1817158;78;28262;-55
2023/03/20 11:54:49;;;;;;;0.45;0.45;;;;;;;24.63;34.51;99686.88;1817808;78;28263;-56
2023/03/20 11:57:44;;;;;;;0.65;0.65;;;;;;;24.66;34.40;99687.77;1811297;78;31278;-55
2023/03/20 12:00:42;;;;;;;1.12;0.70;;;;;;;24.66;34.41;99681.74;1838960;76;28174;-57
2023/03/20 12:03:43;;;;;;;0.68;0.68;;;;;;;24.65;34.34;99686.92;1842232;77;28113;-56
2023/03/20 12:06:50;;;;;;;0.70;0.70;;;;;;;24.64;34.47;99680.31;1842513;77;28546;-54
2023/03/20 12:09:50;;;;;;;0.50;0.50;;;;;;;24.63;34.34;99680.84;1836576;77;28100;-55
2023/03/20 12:12:41;;;;;;;0.80;0.80;;;;;;;24.61;34.24;99676.14;1818446;78;28338;-54
2023/03/20 12:15:33;;;;;;;1.50;0.68;;;;;;;24.58;34.19;99679.36;1816956;77;28329;-52
2023/03/20 12:18:30;;;;;;;0.80;0.80;;;;;;;24.57;34.14;99669.47;1818992;78;28368;-54
2023/03/20 12:21:24;;;;;;;0.65;0.65;;;;;;;24.61;34.07;99671.17;1817411;78;28758;-56
2023/03/20 12:24:25;;;;;;;0.65;0.62;;;;;;;24.59;33.97;99668.69;1817502;78;28321;-55
2023/03/20 12:27:17;;;;;;;1.20;1.10;;;;;;;24.57;34.02;99672.75;1806668;78;27799;-56
2023/03/20 12:30:08;;;;;;;0.42;0.42;;;;;;;24.60;33.91;99666.75;1820304;78;28285;-57
2023/03/20 12:33:18;;;;;;;0.70;0.70;;;;;;;24.57;33.90;99653.53;1868705;76;28053;-57
2023/03/20 12:36:12;;;;;;;0.63;0.63;;;;;;;24.60;33.91;99651.11;1868898;76;28090;-57
2023/03/20 12:39:03;;;;;;;0.80;0.80;;;;;;;24.57;33.86;99648.88;1869078;76;28112;-57
2023/03/20 12:42:12;;;;;;;0.45;0.45;;;;;;;24.61;33.89;99654.16;1867568;76;28075;-55
2023/03/20 12:45:17;;;;;;;0.62;0.62;;;;;;;24.58;33.91;99649.15;1868144;74;27954;-56
2023/03/20 12:48:28;;;;;;;0.70;0.70;;;;;;;24.58;33.92;99640.91;1868834;76;28064;-53
2023/03/20 12:51:41;;;;;;;0.78;0.78;;;;;;;24.57;33.97;99637.89;1855767;76;28177;-56
2023/03/20 12:54:40;;;;;;;0.68;0.68;;;;;;;24.57;33.96;99632.39;1855831;76;28150;-57
2023/03/20 12:57:40;;;;;;;0.60;0.60;;;;;;;24.57;33.97;99625.53;1868881;76;28142;-56
2023/03/20 13:00:50;;;;;;;0.60;0.60;;;;;;;24.58;33.96;99613.45;1865097;74;28107;-55
2023/03/20 13:04:07;;;;;;;0.60;0.60;;;;;;;24.60;33.91;99608.53;1848375;76;28056;-56
2023/03/20 13:06:58;;;;;;;0.70;0.70;;;;;;;24.60;33.97;99605.79;1837448;77;28303;-60
2023/03/20 13:10:07;;;;;;;0.55;0.55;;;;;;;24.60;33.96;99595.34;1864522;76;28060;-55
2023/03/20 13:13:04;;;;;;;0.60;0.60;;;;;;;24.63;33.91;99597.60;1859191;76;28064;-56
2023/03/20 13:16:25;;;;;;;0.70;0.70;;;;;;;24.61;33.92;99585.50;1847216;75;28170;-56
2023/03/20 13:19:31;;;;;;;0.50;0.50;;;;;;;24.62;33.94;99583.59;1868988;76;30097;-56
2023/03/20 13:22:31;;;;;;;0.82;0.82;;;;;;;24.60;33.95;99580.23;1869056;76;28390;-58
2023/03/20 13:25:28;;;;;;;0.80;0.80;;;;;;;24.61;33.89;99575.05;1868983;76;28572;-57
2023/03/20 13:28:36;;;;;;;0.60;0.60;;;;;;;24.62;33.89;99562.99;1852606;76;31974;-56
2023/03/20 13:31:40;;;;;;;0.80;0.60;;;;;;;24.61;33.84;99562.16;1858640;76;28610;-56
2023/03/20 13:34:47;;;;;;;0.60;0.60;;;;;;;24.62;33.85;99557.50;1865687;75;28117;-56
2023/03/20 13:37:51;;;;;;;0.60;0.55;;;;;;;24.63;33.81;99549.00;1878196;76;28154;-53
2023/03/20 13:40:42;;;;;;;0.80;0.80;;;;;;;24.62;33.78;99545.95;1878151;76;28121;-56